sensor_id;sensor_type;location;lat;lon;timestamp;P1;durP1;ratioP1;P2;durP2;ratioP2
80732;SDS011;70130;44.534;18.678;2023-07-13T00:02:23;18.10;;;13.38;;
80732;SDS011;70130;44.534;18.678;2023-07-13T00:04:49;16.38;;;12.93;;
80732;SDS011;70130;44.534;18.678;2023-07-13T00:07:15;16.08;;;12.07;;
80732;SDS011;70130;44.534;18.678;2023-07-13T00:09:48;17.67;;;13.10;;
80732;SDS011;70130;44.534;18.678;2023-07-13T00:12:27;17.33;;;12.35;;
80732;SDS011;70130;44.534;18.678;2023-07-13T00:14:58;15.95;;;12.85;;
80732;SDS011;70130;44.534;18.678;2023-07-13T00:17:26;15.93;;;12.35;;
80732;SDS011;70130;44.534;18.678;2023-07-13T00:19:53;14.02;;;12.48;;
80732;SDS011;70130;44.534;18.678;2023-07-13T00:22:21;16.15;;;12.95;;
80732;SDS011;70130;44.534;18.678;2023-07-13T00:24:47;16.23;;;13.15;;
80732;SDS011;70130;44.534;18.678;2023-07-13T00:27:12;14.93;;;12.32;;
80732;SDS011;70130;44.534;18.678;2023-07-13T00:29:39;14.65;;;11.98;;
80732;SDS011;70130;44.534;18.678;2023-07-13T00:32:05;16.38;;;12.43;;
80732;SDS011;70130;44.534;18.678;2023-07-13T00:34:32;16.52;;;12.45;;
80732;SDS011;70130;44.534;18.678;2023-07-13T00:36:58;15.50;;;12.32;;
80732;SDS011;70130;44.534;18.678;2023-07-13T00:39:24;14.60;;;11.98;;
80732;SDS011;70130;44.534;18.678;2023-07-13T00:41:50;12.70;;;11.40;;
80732;SDS011;70130;44.534;18.678;2023-07-13T00:44:17;18.15;;;12.20;;
80732;SDS011;70130;44.534;18.678;2023-07-13T00:46:44;15.82;;;11.10;;
80732;SDS011;70130;44.534;18.678;2023-07-13T00:49:12;14.43;;;11.82;;
80732;SDS011;70130;44.534;18.678;2023-07-13T00:51:48;16.02;;;11.80;;
80732;SDS011;70130;44.534;18.678;2023-07-13T00:54:18;14.10;;;11.35;;
80732;SDS011;70130;44.534;18.678;2023-07-13T00:56:48;16.00;;;12.63;;
80732;SDS011;70130;44.534;18.678;2023-07-13T00:59:17;13.95;;;11.07;;
80732;SDS011;70130;44.534;18.678;2023-07-13T01:01:45;16.80;;;11.68;;
80732;SDS011;70130;44.534;18.678;2023-07-13T01:04:11;11.98;;;10.60;;
80732;SDS011;70130;44.534;18.678;2023-07-13T01:06:38;15.20;;;10.75;;
80732;SDS011;70130;44.534;18.678;2023-07-13T01:09:05;15.70;;;11.15;;
80732;SDS011;70130;44.534;18.678;2023-07-13T01:11:33;14.15;;;11.15;;
80732;SDS011;70130;44.534;18.678;2023-07-13T01:14:00;12.65;;;10.32;;
80732;SDS011;70130;44.534;18.678;2023-07-13T01:16:27;16.55;;;10.80;;
80732;SDS011;70130;44.534;18.678;2023-07-13T01:18:59;13.85;;;11.15;;
80732;SDS011;70130;44.534;18.678;2023-07-13T01:21:29;13.82;;;10.73;;
80732;SDS011;70130;44.534;18.678;2023-07-13T01:23:58;12.38;;;10.43;;
80732;SDS011;70130;44.534;18.678;2023-07-13T01:26:24;12.88;;;10.82;;
80732;SDS011;70130;44.534;18.678;2023-07-13T01:28:49;13.25;;;10.15;;
80732;SDS011;70130;44.534;18.678;2023-07-13T01:31:15;13.25;;;10.98;;
80732;SDS011;70130;44.534;18.678;2023-07-13T01:33:41;14.00;;;10.27;;
80732;SDS011;70130;44.534;18.678;2023-07-13T01:36:07;14.02;;;9.70;;
80732;SDS011;70130;44.534;18.678;2023-07-13T01:38:34;13.68;;;9.75;;
80732;SDS011;70130;44.534;18.678;2023-07-13T01:41:00;12.57;;;9.98;;
80732;SDS011;70130;44.534;18.678;2023-07-13T01:43:26;10.77;;;8.70;;
80732;SDS011;70130;44.534;18.678;2023-07-13T01:45:51;12.60;;;8.95;;
80732;SDS011;70130;44.534;18.678;2023-07-13T01:48:17;11.75;;;9.07;;
80732;SDS011;70130;44.534;18.678;2023-07-13T01:50:44;12.15;;;8.98;;
80732;SDS011;70130;44.534;18.678;2023-07-13T01:53:10;13.00;;;8.88;;
80732;SDS011;70130;44.534;18.678;2023-07-13T01:55:35;11.15;;;8.68;;
80732;SDS011;70130;44.534;18.678;2023-07-13T01:58:03;11.10;;;9.32;;
80732;SDS011;70130;44.534;18.678;2023-07-13T02:00:29;12.10;;;9.25;;
80732;SDS011;70130;44.534;18.678;2023-07-13T02:02:55;12.93;;;8.63;;
80732;SDS011;70130;44.534;18.678;2023-07-13T02:05:21;13.55;;;9.10;;
80732;SDS011;70130;44.534;18.678;2023-07-13T02:07:47;11.80;;;8.80;;
80732;SDS011;70130;44.534;18.678;2023-07-13T02:10:13;10.18;;;8.20;;
80732;SDS011;70130;44.534;18.678;2023-07-13T02:12:39;11.45;;;8.52;;
80732;SDS011;70130;44.534;18.678;2023-07-13T02:15:05;13.45;;;8.15;;
80732;SDS011;70130;44.534;18.678;2023-07-13T02:17:31;12.25;;;8.75;;
80732;SDS011;70130;44.534;18.678;2023-07-13T02:19:57;11.02;;;9.05;;
80732;SDS011;70130;44.534;18.678;2023-07-13T02:22:23;11.23;;;9.10;;
80732;SDS011;70130;44.534;18.678;2023-07-13T02:24:49;13.23;;;9.18;;
80732;SDS011;70130;44.534;18.678;2023-07-13T02:27:17;13.48;;;8.95;;
80732;SDS011;70130;44.534;18.678;2023-07-13T02:29:43;15.15;;;9.23;;
80732;SDS011;70130;44.534;18.678;2023-07-13T02:32:08;13.85;;;7.88;;
80732;SDS011;70130;44.534;18.678;2023-07-13T02:34:34;16.50;;;8.15;;
80732;SDS011;70130;44.534;18.678;2023-07-13T02:37:01;12.07;;;7.43;;
80732;SDS011;70130;44.534;18.678;2023-07-13T02:39:27;10.77;;;7.45;;
80732;SDS011;70130;44.534;18.678;2023-07-13T02:41:53;10.25;;;7.22;;
80732;SDS011;70130;44.534;18.678;2023-07-13T02:44:18;12.63;;;8.23;;
80732;SDS011;70130;44.534;18.678;2023-07-13T02:46:44;12.18;;;7.75;;
80732;SDS011;70130;44.534;18.678;2023-07-13T02:49:10;13.98;;;7.90;;
80732;SDS011;70130;44.534;18.678;2023-07-13T02:51:35;11.25;;;7.72;;
80732;SDS011;70130;44.534;18.678;2023-07-13T02:54:02;10.68;;;7.82;;
80732;SDS011;70130;44.534;18.678;2023-07-13T02:56:29;10.43;;;7.78;;
80732;SDS011;70130;44.534;18.678;2023-07-13T02:58:56;10.00;;;8.45;;
80732;SDS011;70130;44.534;18.678;2023-07-13T03:01:22;10.70;;;8.18;;
80732;SDS011;70130;44.534;18.678;2023-07-13T03:03:49;10.13;;;8.52;;
80732;SDS011;70130;44.534;18.678;2023-07-13T03:06:17;10.73;;;8.63;;
80732;SDS011;70130;44.534;18.678;2023-07-13T03:08:48;12.88;;;8.80;;
80732;SDS011;70130;44.534;18.678;2023-07-13T03:11:18;13.10;;;9.47;;
80732;SDS011;70130;44.534;18.678;2023-07-13T03:13:49;13.40;;;8.70;;
80732;SDS011;70130;44.534;18.678;2023-07-13T03:16:15;13.15;;;9.18;;
80732;SDS011;70130;44.534;18.678;2023-07-13T03:18:42;11.50;;;8.90;;
80732;SDS011;70130;44.534;18.678;2023-07-13T03:21:10;13.65;;;9.00;;
80732;SDS011;70130;44.534;18.678;2023-07-13T03:23:38;11.82;;;9.25;;
80732;SDS011;70130;44.534;18.678;2023-07-13T03:26:04;13.23;;;9.35;;
80732;SDS011;70130;44.534;18.678;2023-07-13T03:28:33;15.30;;;9.35;;
80732;SDS011;70130;44.534;18.678;2023-07-13T03:31:03;15.27;;;9.18;;
80732;SDS011;70130;44.534;18.678;2023-07-13T03:33:34;11.32;;;9.07;;
80732;SDS011;70130;44.534;18.678;2023-07-13T03:36:00;11.07;;;8.75;;
80732;SDS011;70130;44.534;18.678;2023-07-13T03:38:27;11.15;;;8.50;;
80732;SDS011;70130;44.534;18.678;2023-07-13T03:40:53;10.35;;;8.70;;
80732;SDS011;70130;44.534;18.678;2023-07-13T03:43:19;11.30;;;8.25;;
80732;SDS011;70130;44.534;18.678;2023-07-13T03:45:46;12.20;;;7.38;;
80732;SDS011;70130;44.534;18.678;2023-07-13T03:48:12;10.38;;;8.20;;
80732;SDS011;70130;44.534;18.678;2023-07-13T03:50:39;11.38;;;7.47;;
80732;SDS011;70130;44.534;18.678;2023-07-13T03:53:05;10.90;;;8.20;;
80732;SDS011;70130;44.534;18.678;2023-07-13T03:55:31;12.07;;;8.35;;
80732;SDS011;70130;44.534;18.678;2023-07-13T03:57:58;12.70;;;7.78;;
80732;SDS011;70130;44.534;18.678;2023-07-13T04:00:26;13.40;;;7.78;;
80732;SDS011;70130;44.534;18.678;2023-07-13T04:02:53;12.68;;;8.50;;
80732;SDS011;70130;44.534;18.678;2023-07-13T04:05:19;13.48;;;7.57;;
80732;SDS011;70130;44.534;18.678;2023-07-13T04:07:45;11.18;;;8.23;;
80732;SDS011;70130;44.534;18.678;2023-07-13T04:10:11;11.23;;;7.57;;
80732;SDS011;70130;44.534;18.678;2023-07-13T04:12:36;11.20;;;7.85;;
80732;SDS011;70130;44.534;18.678;2023-07-13T04:15:03;15.48;;;7.60;;
80732;SDS011;70130;44.534;18.678;2023-07-13T04:17:28;13.20;;;7.65;;
80732;SDS011;70130;44.534;18.678;2023-07-13T04:19:54;12.00;;;7.50;;
80732;SDS011;70130;44.534;18.678;2023-07-13T04:22:20;12.52;;;8.68;;
80732;SDS011;70130;44.534;18.678;2023-07-13T04:24:45;11.18;;;8.18;;
80732;SDS011;70130;44.534;18.678;2023-07-13T04:27:11;13.57;;;7.43;;
80732;SDS011;70130;44.534;18.678;2023-07-13T04:29:36;16.05;;;7.70;;
80732;SDS011;70130;44.534;18.678;2023-07-13T04:32:02;14.65;;;7.93;;
80732;SDS011;70130;44.534;18.678;2023-07-13T04:34:28;12.43;;;7.93;;
80732;SDS011;70130;44.534;18.678;2023-07-13T04:36:53;12.95;;;8.10;;
80732;SDS011;70130;44.534;18.678;2023-07-13T04:39:19;12.55;;;8.13;;
80732;SDS011;70130;44.534;18.678;2023-07-13T04:41:45;11.00;;;7.63;;
80732;SDS011;70130;44.534;18.678;2023-07-13T04:44:11;11.30;;;8.35;;
80732;SDS011;70130;44.534;18.678;2023-07-13T04:46:37;13.75;;;8.60;;
80732;SDS011;70130;44.534;18.678;2023-07-13T04:49:03;13.30;;;7.85;;
80732;SDS011;70130;44.534;18.678;2023-07-13T04:51:29;9.63;;;7.70;;
80732;SDS011;70130;44.534;18.678;2023-07-13T04:53:54;10.13;;;8.55;;
80732;SDS011;70130;44.534;18.678;2023-07-13T04:56:20;12.85;;;8.48;;
80732;SDS011;70130;44.534;18.678;2023-07-13T04:58:46;12.45;;;7.63;;
80732;SDS011;70130;44.534;18.678;2023-07-13T05:01:11;12.18;;;8.40;;
80732;SDS011;70130;44.534;18.678;2023-07-13T05:03:38;15.82;;;9.07;;
80732;SDS011;70130;44.534;18.678;2023-07-13T05:06:05;11.57;;;8.18;;
80732;SDS011;70130;44.534;18.678;2023-07-13T05:08:35;11.50;;;8.35;;
80732;SDS011;70130;44.534;18.678;2023-07-13T05:11:01;12.25;;;8.60;;
80732;SDS011;70130;44.534;18.678;2023-07-13T05:13:27;11.77;;;8.48;;
80732;SDS011;70130;44.534;18.678;2023-07-13T05:15:56;13.82;;;8.80;;
80732;SDS011;70130;44.534;18.678;2023-07-13T05:18:23;11.88;;;9.18;;
80732;SDS011;70130;44.534;18.678;2023-07-13T05:20:59;13.52;;;9.15;;
80732;SDS011;70130;44.534;18.678;2023-07-13T05:23:27;13.85;;;8.45;;
80732;SDS011;70130;44.534;18.678;2023-07-13T05:25:53;12.23;;;8.40;;
80732;SDS011;70130;44.534;18.678;2023-07-13T05:28:18;13.20;;;8.52;;
80732;SDS011;70130;44.534;18.678;2023-07-13T05:30:47;18.17;;;8.93;;
80732;SDS011;70130;44.534;18.678;2023-07-13T05:33:14;12.82;;;8.45;;
80732;SDS011;70130;44.534;18.678;2023-07-13T05:35:39;14.38;;;9.05;;
80732;SDS011;70130;44.534;18.678;2023-07-13T05:38:05;9.98;;;6.75;;
80732;SDS011;70130;44.534;18.678;2023-07-13T05:40:31;9.80;;;7.20;;
80732;SDS011;70130;44.534;18.678;2023-07-13T05:42:57;10.85;;;7.03;;
80732;SDS011;70130;44.534;18.678;2023-07-13T05:45:22;12.73;;;6.95;;
80732;SDS011;70130;44.534;18.678;2023-07-13T05:47:48;12.27;;;7.28;;
80732;SDS011;70130;44.534;18.678;2023-07-13T05:50:14;12.05;;;8.18;;
80732;SDS011;70130;44.534;18.678;2023-07-13T05:52:39;12.40;;;7.63;;
80732;SDS011;70130;44.534;18.678;2023-07-13T05:55:05;11.80;;;7.55;;
80732;SDS011;70130;44.534;18.678;2023-07-13T05:57:31;15.05;;;8.18;;
80732;SDS011;70130;44.534;18.678;2023-07-13T05:59:57;12.70;;;7.35;;
80732;SDS011;70130;44.534;18.678;2023-07-13T06:02:22;12.23;;;6.78;;
80732;SDS011;70130;44.534;18.678;2023-07-13T06:04:48;12.18;;;7.40;;
80732;SDS011;70130;44.534;18.678;2023-07-13T06:07:14;13.77;;;7.38;;
80732;SDS011;70130;44.534;18.678;2023-07-13T06:09:40;11.68;;;8.10;;
80732;SDS011;70130;44.534;18.678;2023-07-13T06:12:05;15.30;;;8.35;;
80732;SDS011;70130;44.534;18.678;2023-07-13T06:14:31;11.63;;;7.95;;
80732;SDS011;70130;44.534;18.678;2023-07-13T06:16:57;14.98;;;7.68;;
80732;SDS011;70130;44.534;18.678;2023-07-13T06:19:23;10.55;;;7.80;;
80732;SDS011;70130;44.534;18.678;2023-07-13T06:21:48;12.95;;;7.95;;
80732;SDS011;70130;44.534;18.678;2023-07-13T06:24:14;12.80;;;8.38;;
80732;SDS011;70130;44.534;18.678;2023-07-13T06:26:40;13.95;;;8.15;;
80732;SDS011;70130;44.534;18.678;2023-07-13T06:29:05;16.58;;;8.27;;
80732;SDS011;70130;44.534;18.678;2023-07-13T06:31:31;11.85;;;7.68;;
80732;SDS011;70130;44.534;18.678;2023-07-13T06:33:57;14.05;;;8.15;;
80732;SDS011;70130;44.534;18.678;2023-07-13T06:36:22;10.32;;;7.97;;
80732;SDS011;70130;44.534;18.678;2023-07-13T06:38:48;15.10;;;9.38;;
80732;SDS011;70130;44.534;18.678;2023-07-13T06:41:13;13.23;;;7.25;;
80732;SDS011;70130;44.534;18.678;2023-07-13T06:43:39;12.50;;;7.38;;
80732;SDS011;70130;44.534;18.678;2023-07-13T06:46:05;11.25;;;6.72;;
80732;SDS011;70130;44.534;18.678;2023-07-13T06:48:30;10.95;;;7.18;;
80732;SDS011;70130;44.534;18.678;2023-07-13T06:50:56;13.00;;;8.32;;
80732;SDS011;70130;44.534;18.678;2023-07-13T06:53:22;14.68;;;8.40;;
80732;SDS011;70130;44.534;18.678;2023-07-13T06:55:48;14.95;;;8.23;;
80732;SDS011;70130;44.534;18.678;2023-07-13T06:58:14;13.63;;;8.40;;
80732;SDS011;70130;44.534;18.678;2023-07-13T07:00:41;11.38;;;7.57;;
80732;SDS011;70130;44.534;18.678;2023-07-13T07:03:07;15.73;;;7.30;;
80732;SDS011;70130;44.534;18.678;2023-07-13T07:05:33;13.73;;;7.93;;
80732;SDS011;70130;44.534;18.678;2023-07-13T07:07:59;11.40;;;7.90;;
80732;SDS011;70130;44.534;18.678;2023-07-13T07:10:25;11.60;;;7.82;;
80732;SDS011;70130;44.534;18.678;2023-07-13T07:12:50;13.93;;;7.82;;
80732;SDS011;70130;44.534;18.678;2023-07-13T07:15:16;8.90;;;6.88;;
80732;SDS011;70130;44.534;18.678;2023-07-13T07:17:43;13.32;;;7.93;;
80732;SDS011;70130;44.534;18.678;2023-07-13T07:20:09;11.65;;;8.23;;
80732;SDS011;70130;44.534;18.678;2023-07-13T07:22:35;12.60;;;8.35;;
80732;SDS011;70130;44.534;18.678;2023-07-13T07:25:01;19.17;;;10.82;;
80732;SDS011;70130;44.534;18.678;2023-07-13T07:27:27;11.70;;;7.57;;
80732;SDS011;70130;44.534;18.678;2023-07-13T07:29:52;14.82;;;9.27;;
80732;SDS011;70130;44.534;18.678;2023-07-13T07:32:19;11.80;;;7.50;;
80732;SDS011;70130;44.534;18.678;2023-07-13T07:34:45;10.77;;;6.97;;
80732;SDS011;70130;44.534;18.678;2023-07-13T07:37:12;11.07;;;6.50;;
80732;SDS011;70130;44.534;18.678;2023-07-13T07:39:39;8.43;;;6.60;;
80732;SDS011;70130;44.534;18.678;2023-07-13T07:42:05;13.18;;;7.63;;
80732;SDS011;70130;44.534;18.678;2023-07-13T07:44:31;10.95;;;7.78;;
80732;SDS011;70130;44.534;18.678;2023-07-13T07:46:57;14.43;;;7.07;;
80732;SDS011;70130;44.534;18.678;2023-07-13T07:49:23;13.18;;;7.18;;
80732;SDS011;70130;44.534;18.678;2023-07-13T07:51:49;10.85;;;6.93;;
80732;SDS011;70130;44.534;18.678;2023-07-13T07:54:15;15.13;;;6.75;;
80732;SDS011;70130;44.534;18.678;2023-07-13T07:56:40;13.35;;;6.70;;
80732;SDS011;70130;44.534;18.678;2023-07-13T07:59:06;12.85;;;6.38;;
80732;SDS011;70130;44.534;18.678;2023-07-13T08:01:32;14.07;;;7.90;;
80732;SDS011;70130;44.534;18.678;2023-07-13T08:03:57;12.25;;;7.15;;
80732;SDS011;70130;44.534;18.678;2023-07-13T08:06:23;13.77;;;9.52;;
80732;SDS011;70130;44.534;18.678;2023-07-13T08:08:49;16.23;;;10.30;;
80732;SDS011;70130;44.534;18.678;2023-07-13T08:11:16;13.75;;;8.35;;
80732;SDS011;70130;44.534;18.678;2023-07-13T08:13:42;20.48;;;13.63;;
80732;SDS011;70130;44.534;18.678;2023-07-13T08:16:07;20.58;;;13.00;;
80732;SDS011;70130;44.534;18.678;2023-07-13T08:18:33;11.65;;;7.63;;
80732;SDS011;70130;44.534;18.678;2023-07-13T08:21:02;10.43;;;7.45;;
80732;SDS011;70130;44.534;18.678;2023-07-13T08:23:31;11.88;;;7.80;;
80732;SDS011;70130;44.534;18.678;2023-07-13T08:25:57;12.38;;;6.32;;
80732;SDS011;70130;44.534;18.678;2023-07-13T08:28:23;9.52;;;7.30;;
80732;SDS011;70130;44.534;18.678;2023-07-13T08:30:49;11.85;;;7.45;;
80732;SDS011;70130;44.534;18.678;2023-07-13T08:33:15;15.55;;;9.10;;
80732;SDS011;70130;44.534;18.678;2023-07-13T08:35:45;13.55;;;8.48;;
80732;SDS011;70130;44.534;18.678;2023-07-13T08:38:12;13.90;;;7.80;;
80732;SDS011;70130;44.534;18.678;2023-07-13T08:40:38;16.77;;;7.47;;
80732;SDS011;70130;44.534;18.678;2023-07-13T08:43:04;12.52;;;6.95;;
80732;SDS011;70130;44.534;18.678;2023-07-13T08:45:49;9.90;;;7.10;;
80732;SDS011;70130;44.534;18.678;2023-07-13T08:51:00;12.35;;;7.40;;
80732;SDS011;70130;44.534;18.678;2023-07-13T08:53:40;10.13;;;7.00;;
80732;SDS011;70130;44.534;18.678;2023-07-13T08:56:11;10.90;;;6.45;;
80732;SDS011;70130;44.534;18.678;2023-07-13T08:58:49;16.70;;;7.20;;
80732;SDS011;70130;44.534;18.678;2023-07-13T09:01:32;11.50;;;6.32;;
80732;SDS011;70130;44.534;18.678;2023-07-13T09:04:16;12.70;;;7.50;;
80732;SDS011;70130;44.534;18.678;2023-07-13T09:06:55;12.00;;;7.60;;
80732;SDS011;70130;44.534;18.678;2023-07-13T09:12:14;11.40;;;6.68;;
80732;SDS011;70130;44.534;18.678;2023-07-13T09:14:49;9.77;;;7.05;;
80732;SDS011;70130;44.534;18.678;2023-07-13T09:17:19;13.57;;;7.00;;
